»·PEaware :: N651C KMRY-KRDD

N651C :: KMRY-KRDD

FLIGHT INFORMATION

Flight Status: Arrived
Operator: Privately registered:
United States
More flights under this callsign
Pilot: Dominic B. (18944)
Aircraft: MCDONNELL-DOUGLAS DC-6/B LIFTMASTER
(DC6)
More flights by this aircraft type
Origin: KMRY Monterey Peninsula
United States
Destination: KRDD Redding Mun
United States
More flights between these airports :: More routes between these airports
Route: +MRY5 SHOEY V27 PYE RBL
File this flight plan on PilotEdge
Remarks: RMK / SIMBRIEF
Altitude:
(Current/Filed)
12,000ft
Speed:
(Current/Filed)
267kts
Departed: 09-Nov-20 08:06 PM
Arrived: 09-Nov-20 09:22 PM
Distance/Time
Traveled:
236nm/1:16
Distance/Time
To Go:
Arrived

Flight Plot

Page will automatically refresh every two minutes.

Flight plan parsing failed; only flown route is shown


Map Options




Map Legend


Flown Route
Filed Route
Departure Airport
Arrival Airport
Navaid (VOR, NDB)
Fix

Horizontal Profiles

Position Reports

Time Latitude Longitude Heading Altitude Ground
Speed
09-Nov-20 19:23 36.592037 -121.850021 75 214ft 0kts
09-Nov-20 19:25 36.592037 -121.850021 75 214ft 0kts
09-Nov-20 19:26 36.592037 -121.850021 75 214ft 0kts
09-Nov-20 19:27 36.592037 -121.850021 75 214ft 0kts
09-Nov-20 19:28 36.592037 -121.850021 75 214ft 0kts
09-Nov-20 19:29 36.592037 -121.850021 75 214ft 0kts
09-Nov-20 19:30 36.592037 -121.850021 75 214ft 0kts
09-Nov-20 19:31 36.592037 -121.850021 75 214ft 0kts
09-Nov-20 19:32 36.592037 -121.850021 75 214ft 0kts
09-Nov-20 19:33 36.592037 -121.850021 75 214ft 0kts
09-Nov-20 19:34 36.592037 -121.850021 75 214ft 0kts
09-Nov-20 19:35 36.592037 -121.850021 75 214ft 0kts
09-Nov-20 19:36 36.592037 -121.850021 75 214ft 0kts
09-Nov-20 19:37 36.592037 -121.850021 75 214ft 0kts
09-Nov-20 19:38 36.592037 -121.850021 75 214ft 0kts
09-Nov-20 19:39 36.592037 -121.850021 75 214ft 0kts
09-Nov-20 19:40 36.592037 -121.850021 75 214ft 0kts
09-Nov-20 19:41 36.592037 -121.850021 75 214ft 0kts
09-Nov-20 19:42 36.592037 -121.850021 75 214ft 0kts
09-Nov-20 19:43 36.592037 -121.850021 75 214ft 0kts
09-Nov-20 19:44 36.592037 -121.850021 75 214ft 0kts
09-Nov-20 19:45 36.592037 -121.850020 75 214ft 0kts
09-Nov-20 19:46 36.592037 -121.850020 75 214ft 0kts
09-Nov-20 19:47 36.592037 -121.850018 75 214ft 0kts
09-Nov-20 19:48 36.592038 -121.850017 75 214ft 0kts
09-Nov-20 19:49 36.592038 -121.850015 75 214ft 0kts
09-Nov-20 19:50 36.592038 -121.850013 75 214ft 0kts
09-Nov-20 19:51 36.591975 -121.849752 166 214ft 0kts
09-Nov-20 19:52 36.591973 -121.849751 166 214ft 0kts
09-Nov-20 19:53 36.591971 -121.849751 166 214ft 0kts
09-Nov-20 19:54 36.591969 -121.849750 166 214ft 0kts
09-Nov-20 19:55 36.591630 -121.849768 202 214ft 6kts
09-Nov-20 19:56 36.590745 -121.850965 162 214ft 10kts
09-Nov-20 19:57 36.589179 -121.848170 112 214ft 13kts
09-Nov-20 19:58 36.588144 -121.845219 108 214ft 10kts
09-Nov-20 19:59 36.587096 -121.841993 116 214ft 6kts
09-Nov-20 20:00 36.585839 -121.841059 182 214ft 6kts
09-Nov-20 20:01 36.584140 -121.838881 114 214ft 15kts
09-Nov-20 20:02 36.582873 -121.834848 96 214ft 0kts
09-Nov-20 20:03 36.582873 -121.834844 96 214ft 0kts
09-Nov-20 20:04 36.583408 -121.833844 304 214ft 10kts
09-Nov-20 20:05 36.590228 -121.853934 291 439ft 131kts
09-Nov-20 20:06 36.610373 -121.899163 326 1737ft 159kts
09-Nov-20 20:07 36.650866 -121.921081 338 3102ft 156kts
09-Nov-20 20:08 36.689980 -121.941430 332 4475ft 152kts
09-Nov-20 20:09 36.716512 -121.984367 301 5727ft 161kts
09-Nov-20 20:10 36.728378 -122.039827 286 6995ft 168kts
09-Nov-20 20:11 36.736494 -122.097857 286 8296ft 171kts
09-Nov-20 20:12 36.754862 -122.148616 326 9562ft 160kts
09-Nov-20 20:13 36.790380 -122.181331 328 10952ft 156kts
09-Nov-20 20:14 36.825950 -122.212677 328 12036ft 171kts
09-Nov-20 20:15 36.871770 -122.252271 327 12004ft 219kts
09-Nov-20 20:16 36.922806 -122.297142 327 12000ft 221kts
09-Nov-20 20:17 36.973020 -122.341858 327 12000ft 221kts
09-Nov-20 20:18 37.023526 -122.386114 328 12003ft 221kts
09-Nov-20 20:19 37.073740 -122.430664 325 12000ft 222kts
09-Nov-20 20:20 37.124583 -122.473921 333 12000ft 220kts
09-Nov-20 20:21 37.182514 -122.495940 349 12000ft 219kts
09-Nov-20 20:22 37.241843 -122.513729 344 11999ft 219kts
09-Nov-20 20:23 37.300323 -122.536463 342 12000ft 219kts
09-Nov-20 20:24 37.358333 -122.560517 342 11999ft 219kts
09-Nov-20 20:25 37.416242 -122.584879 342 12000ft 219kts
09-Nov-20 20:26 37.474214 -122.609360 342 12000ft 219kts
09-Nov-20 20:27 37.532064 -122.633837 342 11999ft 219kts
09-Nov-20 20:28 37.589923 -122.658364 342 11999ft 219kts
09-Nov-20 20:29 37.647737 -122.682633 343 12004ft 219kts
09-Nov-20 20:30 37.706492 -122.704020 341 11998ft 219kts
09-Nov-20 20:31 37.763488 -122.731459 342 12001ft 219kts
09-Nov-20 20:32 37.821844 -122.754911 340 11999ft 219kts
09-Nov-20 20:33 37.879456 -122.780669 343 12000ft 219kts
09-Nov-20 20:35 37.936999 -122.805940 341 11999ft 219kts
09-Nov-20 20:36 37.994886 -122.831025 341 12000ft 219kts
09-Nov-20 20:37 38.052476 -122.855738 342 12000ft 218kts
09-Nov-20 20:38 38.111455 -122.871004 3 11999ft 219kts
09-Nov-20 20:39 38.170110 -122.846475 17 11998ft 223kts
09-Nov-20 20:40 38.228532 -122.820931 11 11999ft 221kts
09-Nov-20 20:41 38.288797 -122.806928 4 11999ft 219kts
09-Nov-20 20:42 38.349291 -122.796765 6 11999ft 220kts
09-Nov-20 20:43 38.409024 -122.778059 13 11997ft 222kts
09-Nov-20 20:44 38.467692 -122.752370 14 11999ft 222kts
09-Nov-20 20:45 38.526921 -122.731665 8 11999ft 220kts
09-Nov-20 20:46 38.587397 -122.718516 6 12000ft 220kts
09-Nov-20 20:47 38.647456 -122.703029 10 12000ft 221kts
09-Nov-20 20:48 38.706817 -122.680212 13 11999ft 221kts
09-Nov-20 20:49 38.765999 -122.658489 9 12000ft 220kts
09-Nov-20 20:50 38.825909 -122.643131 7 11999ft 220kts
09-Nov-20 20:51 38.886063 -122.626745 10 12000ft 221kts
09-Nov-20 20:52 38.945254 -122.605087 12 12000ft 221kts
09-Nov-20 20:53 39.004535 -122.584915 8 12000ft 220kts
09-Nov-20 20:53 39.054648 -122.571475 7 12000ft 219kts
09-Nov-20 20:54 39.114018 -122.553740 10 12001ft 220kts
09-Nov-20 20:55 39.173146 -122.532586 10 12000ft 220kts
09-Nov-20 20:56 39.232617 -122.514180 8 12000ft 219kts
09-Nov-20 20:58 39.301989 -122.493652 10 11997ft 219kts
09-Nov-20 20:58 39.351198 -122.476557 10 12000ft 219kts
09-Nov-20 20:59 39.410224 -122.457886 8 11999ft 218kts
09-Nov-20 21:00 39.469209 -122.439987 9 12001ft 218kts
09-Nov-20 21:01 39.528114 -122.420114 9 12009ft 218kts
09-Nov-20 21:02 39.587237 -122.401751 8 11999ft 217kts
09-Nov-20 21:03 39.645919 -122.382805 10 12000ft 217kts
09-Nov-20 21:04 39.704433 -122.363906 9 11999ft 215kts
09-Nov-20 21:05 39.762048 -122.345411 9 11997ft 204kts
09-Nov-20 21:06 39.811355 -122.329283 7 11992ft 160kts
09-Nov-20 21:07 39.856470 -122.321867 0 11074ft 171kts
09-Nov-20 21:08 39.906980 -122.318923 0 9967ft 190kts
09-Nov-20 21:09 39.960645 -122.316716 0 9146ft 194kts
09-Nov-20 21:10 40.014990 -122.314915 0 8419ft 195kts
09-Nov-20 21:11 40.069380 -122.310085 4 7735ft 197kts
09-Nov-20 21:12 40.124838 -122.303720 357 6954ft 204kts
09-Nov-20 21:13 40.175456 -122.311071 352 6194ft 209kts
09-Nov-20 21:14 40.233642 -122.320626 353 5371ft 213kts
09-Nov-20 21:15 40.292275 -122.313526 9 4625ft 206kts
09-Nov-20 21:16 40.345104 -122.301540 7 4168ft 163kts
09-Nov-20 21:17 40.387601 -122.295128 4 3665ft 146kts
09-Nov-20 21:18 40.425421 -122.294484 358 2534ft 122kts
09-Nov-20 21:19 40.459104 -122.295281 359 1678ft 126kts
09-Nov-20 21:20 40.493554 -122.294990 359 710ft 125kts
09-Nov-20 21:21 40.514104 -122.295050 315 511ft 4kts
09-Nov-20 21:22 40.512995 -122.296321 180 511ft 13kts
09-Nov-20 21:23 40.508909 -122.296465 215 511ft 8kts
09-Nov-20 21:24 40.508088 -122.298804 305 511ft 5kts
09-Nov-20 21:25 40.508219 -122.299266 270 511ft 0kts
09-Nov-20 21:26 40.508219 -122.299266 270 511ft 0kts
09-Nov-20 21:27 40.508219 -122.299266 270 511ft 0kts
09-Nov-20 21:28 40.508219 -122.299266 270 511ft 0kts
09-Nov-20 21:29 40.508219 -122.299266 270 511ft 0kts

Navigation Log

Ident Type
Flight plan parsing failed, navigation log unavailable